sensor_id;sensor_type;location;lat;lon;timestamp;pressure;altitude;pressure_sealevel;temperature;humidity
25664;BME280;13522;50.018;20.014;2022-07-01T00:02:53;98389.22;;;23.05;95.46
25664;BME280;13522;50.018;20.014;2022-07-01T00:06:05;98381.55;;;23.02;96.00
25664;BME280;13522;50.018;20.014;2022-07-01T00:09:24;98381.11;;;23.16;95.19
25664;BME280;13522;50.018;20.014;2022-07-01T00:12:36;98379.59;;;23.20;94.55
25664;BME280;13522;50.018;20.014;2022-07-01T00:16:17;98378.06;;;23.24;94.18
25664;BME280;13522;50.018;20.014;2022-07-01T00:19:57;98380.76;;;23.13;95.04
25664;BME280;13522;50.018;20.014;2022-07-01T00:23:21;98377.88;;;22.96;96.17
25664;BME280;13522;50.018;20.014;2022-07-01T00:26:33;98382.91;;;22.81;96.98
25664;BME280;13522;50.018;20.014;2022-07-01T00:30:15;98372.35;;;22.91;96.31
25664;BME280;13522;50.018;20.014;2022-07-01T00:34:14;98381.63;;;22.84;96.48
25664;BME280;13522;50.018;20.014;2022-07-01T00:37:26;98383.75;;;22.82;96.87
25664;BME280;13522;50.018;20.014;2022-07-01T00:41:06;98382.77;;;22.76;97.60
25664;BME280;13522;50.018;20.014;2022-07-01T00:44:21;98372.89;;;22.52;99.46
25664;BME280;13522;50.018;20.014;2022-07-01T00:48:02;98373.36;;;22.31;100.00
25664;BME280;13522;50.018;20.014;2022-07-01T00:51:42;98367.59;;;22.27;100.00
25664;BME280;13522;50.018;20.014;2022-07-01T00:55:23;98373.67;;;22.23;100.00
25664;BME280;13522;50.018;20.014;2022-07-01T00:59:03;98370.97;;;22.23;100.00
25664;BME280;13522;50.018;20.014;2022-07-01T01:02:15;98373.95;;;22.33;100.00
25664;BME280;13522;50.018;20.014;2022-07-01T01:05:27;98373.52;;;22.36;100.00
25664;BME280;13522;50.018;20.014;2022-07-01T01:08:41;98368.86;;;22.25;100.00
25664;BME280;13522;50.018;20.014;2022-07-01T01:11:56;98371.57;;;22.07;100.00
25664;BME280;13522;50.018;20.014;2022-07-01T01:15:09;98370.67;;;21.95;100.00
25664;BME280;13522;50.018;20.014;2022-07-01T01:18:23;98361.22;;;21.86;100.00
25664;BME280;13522;50.018;20.014;2022-07-01T01:22:03;98363.02;;;21.92;100.00
25664;BME280;13522;50.018;20.014;2022-07-01T01:25:15;98363.16;;;21.97;100.00
25664;BME280;13522;50.018;20.014;2022-07-01T01:31:31;98356.78;;;22.09;100.00
25664;BME280;13522;50.018;20.014;2022-07-01T01:34:43;98356.55;;;22.11;100.00
25664;BME280;13522;50.018;20.014;2022-07-01T01:38:42;98366.56;;;22.10;100.00
25664;BME280;13522;50.018;20.014;2022-07-01T01:42:22;98367.36;;;22.11;100.00
25664;BME280;13522;50.018;20.014;2022-07-01T01:46:04;98376.31;;;22.11;100.00
25664;BME280;13522;50.018;20.014;2022-07-01T01:49:44;98379.92;;;22.05;100.00
25664;BME280;13522;50.018;20.014;2022-07-01T01:52:56;98380.98;;;22.04;100.00
25664;BME280;13522;50.018;20.014;2022-07-01T01:56:36;98389.30;;;22.03;100.00
25664;BME280;13522;50.018;20.014;2022-07-01T02:00:16;98380.75;;;22.06;100.00
25664;BME280;13522;50.018;20.014;2022-07-01T02:03:29;98382.69;;;21.99;100.00
25664;BME280;13522;50.018;20.014;2022-07-01T02:06:41;98383.98;;;21.96;100.00
25664;BME280;13522;50.018;20.014;2022-07-01T02:09:53;98379.84;;;21.94;100.00
25664;BME280;13522;50.018;20.014;2022-07-01T02:13:12;98370.39;;;21.85;100.00
25664;BME280;13522;50.018;20.014;2022-07-01T02:16:23;98377.01;;;21.89;100.00
25664;BME280;13522;50.018;20.014;2022-07-01T02:22:38;98386.33;;;21.68;100.00
25664;BME280;13522;50.018;20.014;2022-07-01T02:25:50;98385.27;;;21.51;100.00
25664;BME280;13522;50.018;20.014;2022-07-01T02:29:02;98390.86;;;21.49;100.00
25664;BME280;13522;50.018;20.014;2022-07-01T02:32:27;98392.81;;;21.42;100.00
25664;BME280;13522;50.018;20.014;2022-07-01T02:35:39;98401.23;;;21.28;100.00
25664;BME280;13522;50.018;20.014;2022-07-01T02:39:20;98401.40;;;21.08;100.00
25664;BME280;13522;50.018;20.014;2022-07-01T02:42:44;98407.67;;;21.02;100.00
25664;BME280;13522;50.018;20.014;2022-07-01T02:45:57;98414.29;;;21.06;100.00
25664;BME280;13522;50.018;20.014;2022-07-01T02:49:09;98407.90;;;21.25;100.00
25664;BME280;13522;50.018;20.014;2022-07-01T02:52:49;98407.02;;;21.31;100.00
25664;BME280;13522;50.018;20.014;2022-07-01T02:56:00;98404.50;;;21.36;100.00
25664;BME280;13522;50.018;20.014;2022-07-01T02:59:14;98403.44;;;21.37;100.00
25664;BME280;13522;50.018;20.014;2022-07-01T03:02:26;98416.06;;;21.43;100.00
25664;BME280;13522;50.018;20.014;2022-07-01T03:05:38;98408.80;;;21.44;100.00
25664;BME280;13522;50.018;20.014;2022-07-01T03:08:50;98407.97;;;21.43;100.00
25664;BME280;13522;50.018;20.014;2022-07-01T03:12:30;98413.22;;;21.38;100.00
25664;BME280;13522;50.018;20.014;2022-07-01T03:16:10;98413.22;;;21.38;100.00
25664;BME280;13522;50.018;20.014;2022-07-01T03:19:22;98416.53;;;21.40;100.00
25664;BME280;13522;50.018;20.014;2022-07-01T03:33:41;98412.61;;;21.36;100.00
25664;BME280;13522;50.018;20.014;2022-07-01T03:37:40;98419.31;;;21.27;100.00
25664;BME280;13522;50.018;20.014;2022-07-01T03:40:52;98417.83;;;21.31;100.00
25664;BME280;13522;50.018;20.014;2022-07-01T03:45:10;98415.92;;;21.38;100.00
25664;BME280;13522;50.018;20.014;2022-07-01T03:49:28;98421.66;;;21.48;100.00
25664;BME280;13522;50.018;20.014;2022-07-01T06:23:29;98406.50;;;25.89;77.13
25664;BME280;13522;50.018;20.014;2022-07-01T06:26:58;98401.88;;;26.27;76.17
25664;BME280;13522;50.018;20.014;2022-07-01T06:30:19;98401.95;;;26.54;75.28
25664;BME280;13522;50.018;20.014;2022-07-01T06:33:41;98405.86;;;26.63;73.01
25664;BME280;13522;50.018;20.014;2022-07-01T06:37:02;98405.92;;;26.90;73.08
25664;BME280;13522;50.018;20.014;2022-07-01T07:04:40;98385.50;;;29.41;62.95
25664;BME280;13522;50.018;20.014;2022-07-01T07:07:54;98389.30;;;29.90;60.48
25664;BME280;13522;50.018;20.014;2022-07-01T07:11:07;98383.75;;;30.21;60.89
25664;BME280;13522;50.018;20.014;2022-07-01T07:14:21;98379.71;;;30.72;60.34
25664;BME280;13522;50.018;20.014;2022-07-01T07:17:33;98386.89;;;31.12;58.46
25664;BME280;13522;50.018;20.014;2022-07-01T07:20:44;98381.83;;;31.63;59.14
25664;BME280;13522;50.018;20.014;2022-07-01T07:23:58;98387.37;;;31.86;56.40
25664;BME280;13522;50.018;20.014;2022-07-01T07:27:10;98388.28;;;32.05;56.43
25664;BME280;13522;50.018;20.014;2022-07-01T07:30:22;98382.22;;;32.32;54.16
25664;BME280;13522;50.018;20.014;2022-07-01T07:33:34;98384.70;;;32.76;55.90
25664;BME280;13522;50.018;20.014;2022-07-01T07:36:46;98380.63;;;33.10;53.23
25664;BME280;13522;50.018;20.014;2022-07-01T07:39:58;98382.34;;;33.06;51.13
25664;BME280;13522;50.018;20.014;2022-07-01T07:43:12;98389.93;;;33.14;53.64
25664;BME280;13522;50.018;20.014;2022-07-01T07:46:23;98385.31;;;33.28;50.06
25664;BME280;13522;50.018;20.014;2022-07-01T07:49:35;98380.67;;;33.43;52.21
25664;BME280;13522;50.018;20.014;2022-07-01T07:52:47;98381.80;;;33.74;51.30
25664;BME280;13522;50.018;20.014;2022-07-01T07:55:59;98381.44;;;33.94;50.98
25664;BME280;13522;50.018;20.014;2022-07-01T07:59:11;98379.74;;;34.25;49.29
25664;BME280;13522;50.018;20.014;2022-07-01T08:02:22;98383.32;;;34.39;48.53
25664;BME280;13522;50.018;20.014;2022-07-01T08:05:35;98380.42;;;34.85;50.84
25664;BME280;13522;50.018;20.014;2022-07-01T08:08:47;98373.41;;;35.15;49.14
25664;BME280;13522;50.018;20.014;2022-07-01T08:11:59;98376.55;;;35.00;47.81
25664;BME280;13522;50.018;20.014;2022-07-01T08:15:10;98378.48;;;34.85;47.34
25664;BME280;13522;50.018;20.014;2022-07-01T08:18:22;98377.66;;;34.99;48.97
25664;BME280;13522;50.018;20.014;2022-07-01T08:21:34;98377.19;;;35.41;47.87
25664;BME280;13522;50.018;20.014;2022-07-01T08:24:46;98367.53;;;35.52;45.32
25664;BME280;13522;50.018;20.014;2022-07-01T08:27:58;98367.48;;;35.65;45.05
25664;BME280;13522;50.018;20.014;2022-07-01T08:31:11;98367.91;;;35.90;44.78
25664;BME280;13522;50.018;20.014;2022-07-01T08:34:24;98374.36;;;35.99;45.36
25664;BME280;13522;50.018;20.014;2022-07-01T08:37:37;98367.77;;;36.25;45.66
25664;BME280;13522;50.018;20.014;2022-07-01T08:40:50;98366.79;;;36.61;43.06
25664;BME280;13522;50.018;20.014;2022-07-01T08:44:02;98359.14;;;36.66;42.00
25664;BME280;13522;50.018;20.014;2022-07-01T08:47:15;98362.09;;;36.78;43.90
25664;BME280;13522;50.018;20.014;2022-07-01T08:50:27;98356.27;;;36.88;43.99
25664;BME280;13522;50.018;20.014;2022-07-01T08:53:39;98361.63;;;37.10;42.01
25664;BME280;13522;50.018;20.014;2022-07-01T08:56:51;98345.35;;;37.26;40.72
25664;BME280;13522;50.018;20.014;2022-07-01T09:00:05;98348.76;;;37.23;41.66
25664;BME280;13522;50.018;20.014;2022-07-01T09:03:21;98340.59;;;37.52;41.27
25664;BME280;13522;50.018;20.014;2022-07-01T09:06:34;98340.72;;;37.64;40.03
25664;BME280;13522;50.018;20.014;2022-07-01T09:09:46;98337.53;;;38.00;41.04
25664;BME280;13522;50.018;20.014;2022-07-01T09:13:00;98341.20;;;37.83;39.34
25664;BME280;13522;50.018;20.014;2022-07-01T09:16:17;98337.75;;;37.86;38.11
25664;BME280;13522;50.018;20.014;2022-07-01T09:19:31;98334.42;;;38.01;38.85
25664;BME280;13522;50.018;20.014;2022-07-01T09:22:59;98334.70;;;38.17;37.89
25664;BME280;13522;50.018;20.014;2022-07-01T09:26:19;98335.45;;;38.35;37.61
25664;BME280;13522;50.018;20.014;2022-07-01T09:29:34;98329.03;;;38.43;37.88
25664;BME280;13522;50.018;20.014;2022-07-01T09:33:03;98328.09;;;38.59;37.80
25664;BME280;13522;50.018;20.014;2022-07-01T09:36:17;98335.53;;;38.76;36.80
25664;BME280;13522;50.018;20.014;2022-07-01T09:39:29;98333.43;;;38.93;35.75
25664;BME280;13522;50.018;20.014;2022-07-01T09:42:46;98328.39;;;39.28;35.79
25664;BME280;13522;50.018;20.014;2022-07-01T09:45:59;98321.11;;;39.56;36.28
25664;BME280;13522;50.018;20.014;2022-07-01T09:49:13;98332.14;;;39.65;34.71
25664;BME280;13522;50.018;20.014;2022-07-01T09:52:25;98322.98;;;39.64;35.63
25664;BME280;13522;50.018;20.014;2022-07-01T09:55:41;98319.55;;;39.47;34.40
25664;BME280;13522;50.018;20.014;2022-07-01T09:58:53;98318.38;;;39.80;33.98
25664;BME280;13522;50.018;20.014;2022-07-01T10:02:05;98315.61;;;39.93;33.57
25664;BME280;13522;50.018;20.014;2022-07-01T10:05:20;98303.59;;;40.37;32.97
25664;BME280;13522;50.018;20.014;2022-07-01T10:08:41;98304.64;;;40.56;31.60
25664;BME280;13522;50.018;20.014;2022-07-01T10:12:28;98305.23;;;40.38;32.52
25664;BME280;13522;50.018;20.014;2022-07-01T10:15:43;98301.52;;;40.46;32.15
25664;BME280;13522;50.018;20.014;2022-07-01T10:18:56;98292.66;;;40.68;32.37
25664;BME280;13522;50.018;20.014;2022-07-01T10:22:25;98295.08;;;40.70;32.38
25664;BME280;13522;50.018;20.014;2022-07-01T10:25:43;98296.58;;;39.70;33.10
25664;BME280;13522;50.018;20.014;2022-07-01T10:28:56;98284.50;;;39.01;34.42
25664;BME280;13522;50.018;20.014;2022-07-01T10:32:25;98289.75;;;38.32;36.25
25664;BME280;13522;50.018;20.014;2022-07-01T10:35:39;98290.91;;;37.30;37.59
25664;BME280;13522;50.018;20.014;2022-07-01T10:39:15;98290.41;;;36.77;40.44
25664;BME280;13522;50.018;20.014;2022-07-01T10:42:34;98282.32;;;36.15;40.68
25664;BME280;13522;50.018;20.014;2022-07-01T10:45:48;98288.28;;;35.61;42.20
25664;BME280;13522;50.018;20.014;2022-07-01T10:49:00;98287.52;;;36.08;41.45
25664;BME280;13522;50.018;20.014;2022-07-01T10:52:12;98284.65;;;36.30;41.90
25664;BME280;13522;50.018;20.014;2022-07-01T10:55:36;98285.74;;;35.73;42.92
25664;BME280;13522;50.018;20.014;2022-07-01T10:58:51;98287.98;;;35.18;43.03
25664;BME280;13522;50.018;20.014;2022-07-01T11:02:12;98290.03;;;34.90;43.05
25664;BME280;13522;50.018;20.014;2022-07-01T11:05:28;98284.80;;;35.03;43.49
25664;BME280;13522;50.018;20.014;2022-07-01T11:08:40;98278.85;;;35.93;41.68
25664;BME280;13522;50.018;20.014;2022-07-01T11:11:59;98278.21;;;36.78;40.05
25664;BME280;13522;50.018;20.014;2022-07-01T11:15:12;98273.66;;;36.99;41.43
25664;BME280;13522;50.018;20.014;2022-07-01T11:18:25;98270.09;;;37.70;39.09
25664;BME280;13522;50.018;20.014;2022-07-01T11:21:38;98272.48;;;37.25;39.94
25664;BME280;13522;50.018;20.014;2022-07-01T11:24:55;98263.06;;;37.01;39.76
25664;BME280;13522;50.018;20.014;2022-07-01T11:28:11;98263.08;;;36.67;38.37
25664;BME280;13522;50.018;20.014;2022-07-01T11:31:33;98255.36;;;37.41;37.94
25664;BME280;13522;50.018;20.014;2022-07-01T11:34:45;98251.44;;;37.88;37.63
25664;BME280;13522;50.018;20.014;2022-07-01T11:38:07;98253.80;;;38.06;36.54
25664;BME280;13522;50.018;20.014;2022-07-01T11:41:35;98256.02;;;38.22;35.04
25664;BME280;13522;50.018;20.014;2022-07-01T11:44:47;98254.98;;;37.59;36.90
25664;BME280;13522;50.018;20.014;2022-07-01T11:47:58;98249.84;;;37.23;37.19
25664;BME280;13522;50.018;20.014;2022-07-01T11:51:13;98249.41;;;36.87;38.97
25664;BME280;13522;50.018;20.014;2022-07-01T11:54:26;98248.09;;;36.50;39.16
25664;BME280;13522;50.018;20.014;2022-07-01T11:57:38;98246.63;;;36.44;38.24
25664;BME280;13522;50.018;20.014;2022-07-01T12:00:50;98255.34;;;36.29;39.60
25664;BME280;13522;50.018;20.014;2022-07-01T12:04:03;98250.77;;;36.16;39.24
25664;BME280;13522;50.018;20.014;2022-07-01T12:07:18;98247.89;;;36.38;39.04
25664;BME280;13522;50.018;20.014;2022-07-01T12:10:32;98243.23;;;36.90;38.27
25664;BME280;13522;50.018;20.014;2022-07-01T12:13:45;98243.34;;;37.11;35.46
25664;BME280;13522;50.018;20.014;2022-07-01T12:16:59;98233.80;;;37.55;35.51
25664;BME280;13522;50.018;20.014;2022-07-01T12:20:12;98228.60;;;37.91;35.08
25664;BME280;13522;50.018;20.014;2022-07-01T12:23:24;98225.78;;;38.29;34.32
25664;BME280;13522;50.018;20.014;2022-07-01T12:26:51;98232.75;;;38.55;34.25
25664;BME280;13522;50.018;20.014;2022-07-01T12:30:07;98217.58;;;38.94;33.95
25664;BME280;13522;50.018;20.014;2022-07-01T12:33:22;98217.15;;;39.04;34.10
25664;BME280;13522;50.018;20.014;2022-07-01T12:36:33;98206.03;;;39.04;34.12
25664;BME280;13522;50.018;20.014;2022-07-01T12:39:47;98213.30;;;39.29;33.87
25664;BME280;13522;50.018;20.014;2022-07-01T12:43:00;98213.41;;;39.33;33.65
25664;BME280;13522;50.018;20.014;2022-07-01T12:46:15;98211.59;;;39.49;32.14
25664;BME280;13522;50.018;20.014;2022-07-01T12:49:38;98212.61;;;39.44;32.56
25664;BME280;13522;50.018;20.014;2022-07-01T12:53:06;98207.52;;;39.46;33.26
25664;BME280;13522;50.018;20.014;2022-07-01T12:56:25;98207.36;;;39.63;33.91
25664;BME280;13522;50.018;20.014;2022-07-01T12:59:38;98198.86;;;39.48;32.25
25664;BME280;13522;50.018;20.014;2022-07-01T13:02:52;98205.98;;;39.25;32.16
25664;BME280;13522;50.018;20.014;2022-07-01T13:06:04;98203.59;;;39.47;32.32
25664;BME280;13522;50.018;20.014;2022-07-01T13:09:16;98209.20;;;39.59;30.82
25664;BME280;13522;50.018;20.014;2022-07-01T13:12:28;98215.81;;;39.79;30.44
25664;BME280;13522;50.018;20.014;2022-07-01T13:15:40;98205.83;;;39.78;30.94
25664;BME280;13522;50.018;20.014;2022-07-01T13:18:52;98205.51;;;39.79;30.86
25664;BME280;13522;50.018;20.014;2022-07-01T13:22:04;98205.66;;;39.38;31.29
25664;BME280;13522;50.018;20.014;2022-07-01T13:25:16;98214.99;;;39.78;31.17
25664;BME280;13522;50.018;20.014;2022-07-01T13:28:28;98209.89;;;39.80;31.30
25664;BME280;13522;50.018;20.014;2022-07-01T13:31:39;98212.21;;;39.91;30.59
25664;BME280;13522;50.018;20.014;2022-07-01T13:34:51;98199.70;;;39.72;31.70
25664;BME280;13522;50.018;20.014;2022-07-01T13:38:03;98195.45;;;39.18;31.92
25664;BME280;13522;50.018;20.014;2022-07-01T13:41:14;98201.95;;;39.22;31.52
25664;BME280;13522;50.018;20.014;2022-07-01T13:44:27;98198.94;;;39.27;32.13
25664;BME280;13522;50.018;20.014;2022-07-01T13:47:39;98198.86;;;39.48;32.94
25664;BME280;13522;50.018;20.014;2022-07-01T13:50:51;98197.51;;;39.54;32.61
25664;BME280;13522;50.018;20.014;2022-07-01T13:54:02;98202.30;;;39.33;32.58
25664;BME280;13522;50.018;20.014;2022-07-01T13:57:14;98189.91;;;39.42;32.10
25664;BME280;13522;50.018;20.014;2022-07-01T14:00:26;98187.72;;;39.36;31.88
25664;BME280;13522;50.018;20.014;2022-07-01T14:03:38;98186.44;;;39.33;32.00
25664;BME280;13522;50.018;20.014;2022-07-01T14:06:52;98189.83;;;38.73;31.52
25664;BME280;13522;50.018;20.014;2022-07-01T14:10:04;98183.84;;;38.83;33.27
25664;BME280;13522;50.018;20.014;2022-07-01T14:13:17;98179.54;;;38.74;32.10
25664;BME280;13522;50.018;20.014;2022-07-01T14:16:30;98181.97;;;38.75;33.77
25664;BME280;13522;50.018;20.014;2022-07-01T14:19:41;98174.23;;;38.81;32.21
25664;BME280;13522;50.018;20.014;2022-07-01T14:22:53;98174.55;;;38.47;32.35
25664;BME280;13522;50.018;20.014;2022-07-01T14:26:05;98168.23;;;38.17;33.21
25664;BME280;13522;50.018;20.014;2022-07-01T14:29:17;98167.06;;;37.97;32.49
25664;BME280;13522;50.018;20.014;2022-07-01T14:32:29;98159.33;;;37.74;32.74
25664;BME280;13522;50.018;20.014;2022-07-01T14:35:40;98163.02;;;37.57;34.00
25664;BME280;13522;50.018;20.014;2022-07-01T14:38:54;98167.53;;;37.32;33.52
25664;BME280;13522;50.018;20.014;2022-07-01T14:42:07;98165.34;;;37.00;34.05
25664;BME280;13522;50.018;20.014;2022-07-01T14:45:19;98167.16;;;36.88;34.28
25664;BME280;13522;50.018;20.014;2022-07-01T14:48:30;98155.09;;;36.75;35.41
25664;BME280;13522;50.018;20.014;2022-07-01T14:51:44;98165.05;;;36.68;36.19
25664;BME280;13522;50.018;20.014;2022-07-01T14:54:56;98177.11;;;36.46;35.66
25664;BME280;13522;50.018;20.014;2022-07-01T14:58:08;98179.35;;;36.35;37.91
25664;BME280;13522;50.018;20.014;2022-07-01T15:01:20;98181.45;;;36.21;36.79
25664;BME280;13522;50.018;20.014;2022-07-01T15:04:32;98183.09;;;36.22;38.24
25664;BME280;13522;50.018;20.014;2022-07-01T15:07:46;98179.84;;;36.03;38.80
25664;BME280;13522;50.018;20.014;2022-07-01T15:10:59;98186.46;;;35.94;39.22
25664;BME280;13522;50.018;20.014;2022-07-01T15:14:12;98186.23;;;35.73;39.09
25664;BME280;13522;50.018;20.014;2022-07-01T15:17:25;98189.46;;;35.66;39.28
25664;BME280;13522;50.018;20.014;2022-07-01T15:20:39;98180.84;;;35.59;38.79
25664;BME280;13522;50.018;20.014;2022-07-01T15:23:51;98192.97;;;35.50;38.02
25664;BME280;13522;50.018;20.014;2022-07-01T15:27:04;98198.81;;;35.48;38.08
25664;BME280;13522;50.018;20.014;2022-07-01T15:30:16;98195.68;;;35.41;38.50
25664;BME280;13522;50.018;20.014;2022-07-01T15:33:29;98198.77;;;35.40;38.73
25664;BME280;13522;50.018;20.014;2022-07-01T15:36:41;98193.05;;;35.36;39.42
25664;BME280;13522;50.018;20.014;2022-07-01T15:39:53;98202.38;;;35.18;39.90
25664;BME280;13522;50.018;20.014;2022-07-01T15:43:13;98201.97;;;35.03;39.77
25664;BME280;13522;50.018;20.014;2022-07-01T15:46:26;98201.29;;;34.97;40.59
25664;BME280;13522;50.018;20.014;2022-07-01T15:49:42;98209.69;;;34.92;41.93
25664;BME280;13522;50.018;20.014;2022-07-01T15:52:54;98205.20;;;34.82;40.55
25664;BME280;13522;50.018;20.014;2022-07-01T15:56:07;98207.18;;;34.82;40.15
25664;BME280;13522;50.018;20.014;2022-07-01T15:59:22;98209.61;;;34.83;40.18
25664;BME280;13522;50.018;20.014;2022-07-01T16:02:34;98207.22;;;34.90;41.99
25664;BME280;13522;50.018;20.014;2022-07-01T16:05:48;98210.12;;;34.85;41.65
25664;BME280;13522;50.018;20.014;2022-07-01T16:09:01;98199.76;;;34.91;41.30
25664;BME280;13522;50.018;20.014;2022-07-01T16:12:16;98203.95;;;34.88;40.08
25664;BME280;13522;50.018;20.014;2022-07-01T16:15:29;98201.91;;;34.94;40.18
25664;BME280;13522;50.018;20.014;2022-07-01T16:18:47;98205.53;;;34.81;40.78
25664;BME280;13522;50.018;20.014;2022-07-01T16:22:04;98208.94;;;34.78;40.27
25664;BME280;13522;50.018;20.014;2022-07-01T16:25:23;98205.28;;;34.69;42.19
25664;BME280;13522;50.018;20.014;2022-07-01T16:29:07;98200.83;;;34.59;39.56
25664;BME280;13522;50.018;20.014;2022-07-01T16:32:25;98199.83;;;34.55;39.47
25664;BME280;13522;50.018;20.014;2022-07-01T16:35:50;98195.66;;;34.44;40.85
25664;BME280;13522;50.018;20.014;2022-07-01T16:39:16;98193.00;;;34.39;41.95
25664;BME280;13522;50.018;20.014;2022-07-01T16:42:34;98202.52;;;34.33;40.30
25664;BME280;13522;50.018;20.014;2022-07-01T16:45:52;98207.03;;;34.29;41.13
25664;BME280;13522;50.018;20.014;2022-07-01T16:56:42;98208.11;;;34.06;42.50
25664;BME280;13522;50.018;20.014;2022-07-01T16:59:55;98205.48;;;34.01;41.23
25664;BME280;13522;50.018;20.014;2022-07-01T17:03:24;98207.59;;;33.90;42.18
25664;BME280;13522;50.018;20.014;2022-07-01T17:06:46;98221.91;;;33.79;42.75
25664;BME280;13522;50.018;20.014;2022-07-01T17:10:46;98214.75;;;33.78;42.31
25664;BME280;13522;50.018;20.014;2022-07-01T17:14:15;98203.84;;;33.73;42.12
25664;BME280;13522;50.018;20.014;2022-07-01T17:18:04;98197.82;;;33.71;41.55
25664;BME280;13522;50.018;20.014;2022-07-01T17:21:24;98199.36;;;33.63;41.43
25664;BME280;13522;50.018;20.014;2022-07-01T17:24:51;98199.36;;;33.63;41.47
25664;BME280;13522;50.018;20.014;2022-07-01T17:28:26;98198.74;;;33.53;43.38
25664;BME280;13522;50.018;20.014;2022-07-01T17:36:30;98207.47;;;33.28;42.80
25664;BME280;13522;50.018;20.014;2022-07-01T17:40:04;98224.17;;;33.17;42.67
25664;BME280;13522;50.018;20.014;2022-07-01T17:43:21;98216.50;;;33.14;42.51
25664;BME280;13522;50.018;20.014;2022-07-01T17:50:00;98228.83;;;33.03;43.82
25664;BME280;13522;50.018;20.014;2022-07-01T17:54:25;98228.45;;;32.91;42.92
25664;BME280;13522;50.018;20.014;2022-07-01T18:02:13;98238.28;;;32.79;43.57
25664;BME280;13522;50.018;20.014;2022-07-01T18:05:39;98243.05;;;32.73;43.73
25664;BME280;13522;50.018;20.014;2022-07-01T18:09:06;98251.09;;;32.70;43.93
25664;BME280;13522;50.018;20.014;2022-07-01T18:15:37;98261.69;;;32.39;44.91
25664;BME280;13522;50.018;20.014;2022-07-01T18:29:31;98277.14;;;32.16;45.33
